sensor_id;sensor_type;location;lat;lon;timestamp;pressure;altitude;pressure_sealevel;temperature;humidity
46199;BME280;31928;52.104;10.030;2022-07-10T00:02:18;101292.63;;;20.97;42.78
46199;BME280;31928;52.104;10.030;2022-07-10T00:04:45;101290.97;;;20.96;42.94
46199;BME280;31928;52.104;10.030;2022-07-10T00:07:11;101292.63;;;20.97;43.31
46199;BME280;31928;52.104;10.030;2022-07-10T00:09:38;101295.09;;;20.98;42.34
46199;BME280;31928;52.104;10.030;2022-07-10T00:12:05;101305.72;;;21.00;42.23
46199;BME280;31928;52.104;10.030;2022-07-10T00:14:31;101300.28;;;21.00;42.26
46199;BME280;31928;52.104;10.030;2022-07-10T00:16:58;101295.09;;;20.98;41.40
46199;BME280;31928;52.104;10.030;2022-07-10T00:19:25;101295.56;;;20.95;41.41
46199;BME280;31928;52.104;10.030;2022-07-10T00:21:51;101298.00;;;20.92;41.56
46199;BME280;31928;52.104;10.030;2022-07-10T00:24:18;101303.28;;;21.29;41.06
46199;BME280;31928;52.104;10.030;2022-07-10T00:26:44;101303.09;;;20.83;41.58
46199;BME280;31928;52.104;10.030;2022-07-10T00:29:11;101309.28;;;20.74;42.44
46199;BME280;31928;52.104;10.030;2022-07-10T00:31:37;101303.16;;;20.67;42.82
46199;BME280;31928;52.104;10.030;2022-07-10T00:34:04;101306.91;;;20.61;43.07
46199;BME280;31928;52.104;10.030;2022-07-10T00:36:32;101296.28;;;20.59;43.36
46199;BME280;31928;52.104;10.030;2022-07-10T00:38:59;101294.88;;;20.57;43.61
46199;BME280;31928;52.104;10.030;2022-07-10T00:41:25;101289.66;;;20.55;43.62
46199;BME280;31928;52.104;10.030;2022-07-10T00:43:57;101285.66;;;20.63;42.64
46199;BME280;31928;52.104;10.030;2022-07-10T00:46:25;101289.19;;;20.58;43.67
46199;BME280;31928;52.104;10.030;2022-07-10T00:48:53;101287.84;;;20.61;42.91
46199;BME280;31928;52.104;10.030;2022-07-10T00:51:24;101292.78;;;20.64;43.02
46199;BME280;31928;52.104;10.030;2022-07-10T00:53:52;101291.44;;;20.66;43.22
46199;BME280;31928;52.104;10.030;2022-07-10T00:56:21;101296.38;;;20.69;42.45
46199;BME280;31928;52.104;10.030;2022-07-10T00:58:49;101288.44;;;20.68;42.96
46199;BME280;31928;52.104;10.030;2022-07-10T01:01:16;101280.53;;;20.66;42.86
46199;BME280;31928;52.104;10.030;2022-07-10T01:03:44;101282.69;;;20.64;42.68
46199;BME280;31928;52.104;10.030;2022-07-10T01:06:13;101282.69;;;20.64;42.66
46199;BME280;31928;52.104;10.030;2022-07-10T01:08:41;101284.00;;;20.62;42.63
46199;BME280;31928;52.104;10.030;2022-07-10T01:11:09;101288.09;;;20.59;41.66
46199;BME280;31928;52.104;10.030;2022-07-10T01:13:37;101272.75;;;20.53;42.15
46199;BME280;31928;52.104;10.030;2022-07-10T01:16:04;101280.06;;;20.48;42.53
46199;BME280;31928;52.104;10.030;2022-07-10T01:18:31;101266.38;;;20.43;42.03
46199;BME280;31928;52.104;10.030;2022-07-10T01:20:57;101265.50;;;20.38;42.18
46199;BME280;31928;52.104;10.030;2022-07-10T01:23:24;101253.16;;;20.30;42.27
46199;BME280;31928;52.104;10.030;2022-07-10T01:25:51;101253.34;;;20.24;42.48
46199;BME280;31928;52.104;10.030;2022-07-10T01:28:17;101251.56;;;20.60;41.46
46199;BME280;31928;52.104;10.030;2022-07-10T01:30:44;101255.50;;;20.22;42.92
46199;BME280;31928;52.104;10.030;2022-07-10T01:33:11;101251.56;;;20.13;43.62
46199;BME280;31928;52.104;10.030;2022-07-10T01:35:37;101256.34;;;20.49;42.13
46199;BME280;31928;52.104;10.030;2022-07-10T01:38:05;101258.66;;;20.14;42.24
46199;BME280;31928;52.104;10.030;2022-07-10T01:40:33;101256.38;;;20.06;43.07
46199;BME280;31928;52.104;10.030;2022-07-10T01:43:00;101255.25;;;20.02;43.11
46199;BME280;31928;52.104;10.030;2022-07-10T01:45:26;101256.56;;;19.99;43.16
46199;BME280;31928;52.104;10.030;2022-07-10T01:47:53;101251.38;;;19.98;42.88
46199;BME280;31928;52.104;10.030;2022-07-10T01:50:20;101245.28;;;20.34;42.23
46199;BME280;31928;52.104;10.030;2022-07-10T01:52:46;101260.63;;;19.97;43.49
46199;BME280;31928;52.104;10.030;2022-07-10T01:55:13;101251.81;;;20.33;42.26
46199;BME280;31928;52.104;10.030;2022-07-10T01:57:40;101249.16;;;19.95;42.71
46199;BME280;31928;52.104;10.030;2022-07-10T02:00:07;101254.44;;;19.85;43.33
46199;BME280;31928;52.104;10.030;2022-07-10T02:02:34;101247.28;;;19.79;43.06
46199;BME280;31928;52.104;10.030;2022-07-10T02:05:01;101241.19;;;19.72;43.44
46199;BME280;31928;52.104;10.030;2022-07-10T02:07:27;101243.84;;;20.05;42.13
46199;BME280;31928;52.104;10.030;2022-07-10T02:09:54;101242.75;;;19.68;43.55
46199;BME280;31928;52.104;10.030;2022-07-10T02:12:20;101246.75;;;19.61;44.44
46199;BME280;31928;52.104;10.030;2022-07-10T02:14:47;101240.38;;;19.55;43.64
46199;BME280;31928;52.104;10.030;2022-07-10T02:17:14;101241.97;;;19.51;43.38
46199;BME280;31928;52.104;10.030;2022-07-10T02:19:42;101228.28;;;19.46;44.45
46199;BME280;31928;52.104;10.030;2022-07-10T02:22:09;101227.72;;;19.44;43.78
46199;BME280;31928;52.104;10.030;2022-07-10T02:24:35;101224.69;;;19.41;44.48
46199;BME280;31928;52.104;10.030;2022-07-10T02:27:02;101235.81;;;19.77;43.06
46199;BME280;31928;52.104;10.030;2022-07-10T02:29:29;101230.44;;;19.44;43.81
46199;BME280;31928;52.104;10.030;2022-07-10T02:31:56;101223.78;;;19.35;44.07
46199;BME280;31928;52.104;10.030;2022-07-10T02:34:23;101218.84;;;19.32;43.83
46199;BME280;31928;52.104;10.030;2022-07-10T02:36:49;101218.25;;;19.68;42.92
46199;BME280;31928;52.104;10.030;2022-07-10T02:39:16;101218.84;;;19.32;44.53
46199;BME280;31928;52.104;10.030;2022-07-10T02:41:43;101223.66;;;19.63;43.19
46199;BME280;31928;52.104;10.030;2022-07-10T02:44:09;101219.84;;;19.27;45.11
46199;BME280;31928;52.104;10.030;2022-07-10T02:46:38;101218.59;;;19.18;45.02
46199;BME280;31928;52.104;10.030;2022-07-10T02:49:04;101224.56;;;19.15;45.60
46199;BME280;31928;52.104;10.030;2022-07-10T02:51:31;101217.13;;;19.10;45.52
46199;BME280;31928;52.104;10.030;2022-07-10T02:53:58;101215.16;;;19.06;45.63
46199;BME280;31928;52.104;10.030;2022-07-10T02:56:24;101222.69;;;19.04;45.63
46199;BME280;31928;52.104;10.030;2022-07-10T02:58:51;101226.47;;;19.03;46.19
46199;BME280;31928;52.104;10.030;2022-07-10T03:01:18;101213.78;;;19.41;43.99
46199;BME280;31928;52.104;10.030;2022-07-10T03:03:44;101210.88;;;19.10;45.88
46199;BME280;31928;52.104;10.030;2022-07-10T03:06:11;101212.72;;;19.42;43.58
46199;BME280;31928;52.104;10.030;2022-07-10T03:08:37;101199.88;;;19.05;45.74
46199;BME280;31928;52.104;10.030;2022-07-10T03:11:04;101199.78;;;19.00;45.95
46199;BME280;31928;52.104;10.030;2022-07-10T03:13:31;101197.66;;;19.34;44.01
46199;BME280;31928;52.104;10.030;2022-07-10T03:15:57;101205.22;;;19.00;46.49
46199;BME280;31928;52.104;10.030;2022-07-10T03:18:24;101202.44;;;18.95;46.09
46199;BME280;31928;52.104;10.030;2022-07-10T03:20:51;101210.84;;;18.93;46.62
46199;BME280;31928;52.104;10.030;2022-07-10T03:23:17;101200.28;;;19.29;44.26
46199;BME280;31928;52.104;10.030;2022-07-10T03:25:44;101204.63;;;18.98;46.92
46199;BME280;31928;52.104;10.030;2022-07-10T03:28:11;101197.31;;;19.31;45.07
46199;BME280;31928;52.104;10.030;2022-07-10T03:30:37;101188.41;;;19.03;46.11
46199;BME280;31928;52.104;10.030;2022-07-10T03:33:04;101188.44;;;19.35;44.54
46199;BME280;31928;52.104;10.030;2022-07-10T03:35:30;101190.06;;;19.04;46.49
46199;BME280;31928;52.104;10.030;2022-07-10T03:38:00;101194.94;;;19.02;46.40
46199;BME280;31928;52.104;10.030;2022-07-10T03:40:27;101202.59;;;19.37;44.39
46199;BME280;31928;52.104;10.030;2022-07-10T03:42:53;101211.34;;;19.07;46.24
46199;BME280;31928;52.104;10.030;2022-07-10T03:45:20;101211.25;;;19.02;46.84
46199;BME280;31928;52.104;10.030;2022-07-10T03:47:47;101206.88;;;19.01;46.66
46199;BME280;31928;52.104;10.030;2022-07-10T03:50:16;101203.56;;;18.99;47.25
46199;BME280;31928;52.104;10.030;2022-07-10T03:52:43;101198.16;;;18.99;47.05
46199;BME280;31928;52.104;10.030;2022-07-10T03:55:10;101206.28;;;18.99;47.16
46199;BME280;31928;52.104;10.030;2022-07-10T03:57:37;101207.47;;;19.35;44.77
46199;BME280;31928;52.104;10.030;2022-07-10T04:00:26;101209.72;;;19.06;47.25
46199;BME280;31928;52.104;10.030;2022-07-10T04:02:57;101203.19;;;19.07;47.19
46199;BME280;31928;52.104;10.030;2022-07-10T04:05:25;101210.66;;;19.00;47.37
46199;BME280;31928;52.104;10.030;2022-07-10T04:07:52;101202.25;;;19.01;47.41
46199;BME280;31928;52.104;10.030;2022-07-10T04:10:19;101210.16;;;19.03;47.47
46199;BME280;31928;52.104;10.030;2022-07-10T04:12:46;101208.28;;;19.03;47.50
46199;BME280;31928;52.104;10.030;2022-07-10T04:15:13;101201.78;;;19.04;47.48
46199;BME280;31928;52.104;10.030;2022-07-10T04:17:39;101206.13;;;19.05;47.81
46199;BME280;31928;52.104;10.030;2022-07-10T04:20:06;101204.28;;;19.06;47.84
46199;BME280;31928;52.104;10.030;2022-07-10T04:22:33;101206.75;;;19.07;47.57
46199;BME280;31928;52.104;10.030;2022-07-10T04:25:00;101200.53;;;19.44;45.59
46199;BME280;31928;52.104;10.030;2022-07-10T04:27:26;101208.25;;;19.15;47.56
46199;BME280;31928;52.104;10.030;2022-07-10T04:29:53;101204.13;;;19.12;47.70
46199;BME280;31928;52.104;10.030;2022-07-10T04:32:20;101201.16;;;19.14;47.56
46199;BME280;31928;52.104;10.030;2022-07-10T04:34:47;101202.81;;;19.15;47.70
46199;BME280;31928;52.104;10.030;2022-07-10T04:37:13;101197.38;;;19.15;47.57
46199;BME280;31928;52.104;10.030;2022-07-10T04:39:41;101208.25;;;19.15;47.63
46199;BME280;31928;52.104;10.030;2022-07-10T04:42:08;101210.97;;;19.15;47.43
46199;BME280;31928;52.104;10.030;2022-07-10T04:44:35;101214.75;;;19.14;47.62
46199;BME280;31928;52.104;10.030;2022-07-10T04:47:03;101206.59;;;19.14;47.68
46199;BME280;31928;52.104;10.030;2022-07-10T04:49:30;101219.41;;;19.18;47.82
46199;BME280;31928;52.104;10.030;2022-07-10T04:51:56;101216.50;;;19.57;45.50
46199;BME280;31928;52.104;10.030;2022-07-10T04:54:23;101213.34;;;19.28;47.33
46199;BME280;31928;52.104;10.030;2022-07-10T04:56:50;101211.44;;;19.28;47.36
46199;BME280;31928;52.104;10.030;2022-07-10T04:59:16;101213.34;;;19.28;47.27
46199;BME280;31928;52.104;10.030;2022-07-10T05:01:43;101213.09;;;19.29;47.26
46199;BME280;31928;52.104;10.030;2022-07-10T05:04:10;101216.59;;;19.29;47.37
46199;BME280;31928;52.104;10.030;2022-07-10T05:06:37;101217.19;;;19.31;47.73
46199;BME280;31928;52.104;10.030;2022-07-10T05:09:04;101214.47;;;19.31;47.61
46199;BME280;31928;52.104;10.030;2022-07-10T05:11:30;101219.91;;;19.31;47.44
46199;BME280;31928;52.104;10.030;2022-07-10T05:13:58;101221.56;;;19.32;47.35
46199;BME280;31928;52.104;10.030;2022-07-10T05:16:24;101216.13;;;19.32;47.61
46199;BME280;31928;52.104;10.030;2022-07-10T05:18:51;101213.97;;;19.34;47.40
46199;BME280;31928;52.104;10.030;2022-07-10T05:21:18;101217.75;;;19.33;46.75
46199;BME280;31928;52.104;10.030;2022-07-10T05:23:44;101216.13;;;19.32;47.13
46199;BME280;31928;52.104;10.030;2022-07-10T05:26:11;101204.66;;;19.30;47.25
46199;BME280;31928;52.104;10.030;2022-07-10T05:28:38;101209.28;;;19.30;46.61
46199;BME280;31928;52.104;10.030;2022-07-10T05:31:05;101201.13;;;19.30;47.18
46199;BME280;31928;52.104;10.030;2022-07-10T05:33:32;101209.53;;;19.28;46.69
46199;BME280;31928;52.104;10.030;2022-07-10T05:35:58;101218.22;;;19.63;45.38
46199;BME280;31928;52.104;10.030;2022-07-10T05:38:25;101214.47;;;19.31;46.54
46199;BME280;31928;52.104;10.030;2022-07-10T05:40:51;101229.09;;;19.63;45.39
46199;BME280;31928;52.104;10.030;2022-07-10T05:43:19;101219.06;;;19.31;46.64
46199;BME280;31928;52.104;10.030;2022-07-10T05:45:46;101220.94;;;19.63;45.04
46199;BME280;31928;52.104;10.030;2022-07-10T05:48:17;101219.06;;;19.31;46.61
46199;BME280;31928;52.104;10.030;2022-07-10T05:50:43;101224.72;;;19.62;45.19
46199;BME280;31928;52.104;10.030;2022-07-10T05:53:10;101214.16;;;19.28;46.48
46199;BME280;31928;52.104;10.030;2022-07-10T05:55:36;101225.00;;;19.61;45.00
46199;BME280;31928;52.104;10.030;2022-07-10T05:58:03;101214.41;;;19.27;46.58
46199;BME280;31928;52.104;10.030;2022-07-10T06:00:29;101212.72;;;19.58;45.09
46199;BME280;31928;52.104;10.030;2022-07-10T06:02:56;101215.22;;;19.27;47.08
46199;BME280;31928;52.104;10.030;2022-07-10T06:05:22;101219.78;;;19.59;45.70
46199;BME280;31928;52.104;10.030;2022-07-10T06:07:49;101211.16;;;19.29;46.60
46199;BME280;31928;52.104;10.030;2022-07-10T06:10:15;101221.25;;;19.29;47.17
46199;BME280;31928;52.104;10.030;2022-07-10T06:12:43;101222.91;;;19.30;46.50
46199;BME280;31928;52.104;10.030;2022-07-10T06:15:09;101227.75;;;19.66;45.47
46199;BME280;31928;52.104;10.030;2022-07-10T06:17:43;101221.63;;;19.37;46.71
46199;BME280;31928;52.104;10.030;2022-07-10T06:20:10;101230.88;;;19.36;46.68
46199;BME280;31928;52.104;10.030;2022-07-10T06:22:37;101231.94;;;19.35;46.78
46199;BME280;31928;52.104;10.030;2022-07-10T06:25:05;101235.22;;;19.37;47.31
46199;BME280;31928;52.104;10.030;2022-07-10T06:27:33;101237.72;;;19.39;46.81
46199;BME280;31928;52.104;10.030;2022-07-10T06:30:00;101225.53;;;19.41;46.58
46199;BME280;31928;52.104;10.030;2022-07-10T06:32:27;101227.16;;;19.42;46.24
46199;BME280;31928;52.104;10.030;2022-07-10T06:34:54;101231.53;;;19.43;46.43
46199;BME280;31928;52.104;10.030;2022-07-10T06:37:21;101225.81;;;19.45;46.23
46199;BME280;31928;52.104;10.030;2022-07-10T06:39:48;101234.31;;;19.48;46.37
46199;BME280;31928;52.104;10.030;2022-07-10T06:42:15;101229.38;;;19.45;45.85
46199;BME280;31928;52.104;10.030;2022-07-10T06:44:42;101227.22;;;19.47;45.72
46199;BME280;31928;52.104;10.030;2022-07-10T06:47:09;101228.88;;;19.48;45.72
46199;BME280;31928;52.104;10.030;2022-07-10T06:49:56;101233.81;;;19.51;45.59
46199;BME280;31928;52.104;10.030;2022-07-10T06:52:23;101229.44;;;19.50;45.56
46199;BME280;31928;52.104;10.030;2022-07-10T06:54:49;101230.28;;;19.51;46.28
46199;BME280;31928;52.104;10.030;2022-07-10T06:57:16;101224.59;;;19.52;46.18
46199;BME280;31928;52.104;10.030;2022-07-10T06:59:45;101225.16;;;19.54;46.15
46199;BME280;31928;52.104;10.030;2022-07-10T07:02:12;101227.38;;;19.57;46.11
46199;BME280;31928;52.104;10.030;2022-07-10T07:04:39;101233.38;;;19.59;46.17
46199;BME280;31928;52.104;10.030;2022-07-10T07:07:05;101220.84;;;19.96;44.99
46199;BME280;31928;52.104;10.030;2022-07-10T07:09:32;101229.75;;;19.70;46.00
46199;BME280;31928;52.104;10.030;2022-07-10T07:11:58;101225.94;;;19.71;45.48
46199;BME280;31928;52.104;10.030;2022-07-10T07:14:25;101229.16;;;20.06;45.14
46199;BME280;31928;52.104;10.030;2022-07-10T07:16:59;101226.06;;;19.81;44.82
46199;BME280;31928;52.104;10.030;2022-07-10T07:19:41;101223.94;;;19.83;44.99
46199;BME280;31928;52.104;10.030;2022-07-10T07:22:26;101214.19;;;19.87;45.06
46199;BME280;31928;52.104;10.030;2022-07-10T07:25:11;101217.00;;;19.92;44.21
46199;BME280;31928;52.104;10.030;2022-07-10T07:27:38;101224.66;;;19.95;43.82
46199;BME280;31928;52.104;10.030;2022-07-10T07:30:15;101219.78;;;19.97;44.15
46199;BME280;31928;52.104;10.030;2022-07-10T07:32:43;101212.50;;;20.02;43.82
46199;BME280;31928;52.104;10.030;2022-07-10T07:35:12;101211.69;;;20.02;43.07
46199;BME280;31928;52.104;10.030;2022-07-10T07:40:08;101217.22;;;20.12;44.25
46199;BME280;31928;52.104;10.030;2022-07-10T07:42:35;101210.72;;;20.13;43.99
46199;BME280;31928;52.104;10.030;2022-07-10T07:45:03;101212.94;;;20.16;43.95
46199;BME280;31928;52.104;10.030;2022-07-10T07:47:31;101211.38;;;20.20;43.53
46199;BME280;31928;52.104;10.030;2022-07-10T07:50:08;101213.56;;;20.23;43.41
46199;BME280;31928;52.104;10.030;2022-07-10T07:52:34;101214.69;;;20.27;43.30
46199;BME280;31928;52.104;10.030;2022-07-10T07:55:02;101206.84;;;20.30;43.85
46199;BME280;31928;52.104;10.030;2022-07-10T07:57:28;101218.03;;;20.34;43.14
46199;BME280;31928;52.104;10.030;2022-07-10T07:59:55;101210.00;;;20.70;43.74
46199;BME280;31928;52.104;10.030;2022-07-10T08:02:21;101214.34;;;20.45;44.11
46199;BME280;31928;52.104;10.030;2022-07-10T08:04:48;101218.72;;;20.46;43.10
46199;BME280;31928;52.104;10.030;2022-07-10T08:07:15;101218.47;;;20.47;42.86
46199;BME280;31928;52.104;10.030;2022-07-10T08:09:41;101227.03;;;20.82;43.43
46199;BME280;31928;52.104;10.030;2022-07-10T08:12:08;101211.69;;;20.50;41.95
46199;BME280;31928;52.104;10.030;2022-07-10T08:14:34;101212.06;;;20.84;42.71
46199;BME280;31928;52.104;10.030;2022-07-10T08:17:01;101218.00;;;20.55;42.53
46199;BME280;31928;52.104;10.030;2022-07-10T08:19:28;101221.81;;;20.54;42.63
46199;BME280;31928;52.104;10.030;2022-07-10T08:21:54;101208.81;;;20.87;43.20
46199;BME280;31928;52.104;10.030;2022-07-10T08:24:21;101202.03;;;20.63;42.47
46199;BME280;31928;52.104;10.030;2022-07-10T08:26:48;101213.47;;;20.65;42.63
46199;BME280;31928;52.104;10.030;2022-07-10T08:29:14;101218.16;;;20.70;41.72
46199;BME280;31928;52.104;10.030;2022-07-10T08:31:41;101211.97;;;20.74;40.27
46199;BME280;31928;52.104;10.030;2022-07-10T08:34:08;101202.75;;;21.12;42.29
46199;BME280;31928;52.104;10.030;2022-07-10T08:36:34;101211.03;;;20.90;41.58
46199;BME280;31928;52.104;10.030;2022-07-10T08:39:07;101213.50;;;20.92;41.75
46199;BME280;31928;52.104;10.030;2022-07-10T08:41:34;101199.59;;;20.93;41.73
46199;BME280;31928;52.104;10.030;2022-07-10T08:44:02;101205.38;;;20.97;41.50
46199;BME280;31928;52.104;10.030;2022-07-10T08:46:31;101203.75;;;21.01;41.34
46199;BME280;31928;52.104;10.030;2022-07-10T08:48:59;101204.31;;;21.03;41.48
46199;BME280;31928;52.104;10.030;2022-07-10T08:51:38;101205.19;;;21.13;41.93
46199;BME280;31928;52.104;10.030;2022-07-10T08:54:08;101205.19;;;21.13;40.73
46199;BME280;31928;52.104;10.030;2022-07-10T08:56:35;101206.31;;;21.17;39.85
46199;BME280;31928;52.104;10.030;2022-07-10T08:59:03;101193.56;;;21.22;39.84
46199;BME280;31928;52.104;10.030;2022-07-10T09:01:33;101197.69;;;21.25;40.90
46199;BME280;31928;52.104;10.030;2022-07-10T09:03:59;101196.06;;;21.29;41.23
46199;BME280;31928;52.104;10.030;2022-07-10T09:06:27;101208.09;;;21.33;41.52
46199;BME280;31928;52.104;10.030;2022-07-10T09:09:02;101201.28;;;21.35;40.08
46199;BME280;31928;52.104;10.030;2022-07-10T09:11:29;101200.47;;;21.40;40.73
46199;BME280;31928;52.104;10.030;2022-07-10T09:14:01;101204.13;;;21.50;40.30
46199;BME280;31928;52.104;10.030;2022-07-10T09:16:35;101189.75;;;21.60;39.46
46199;BME280;31928;52.104;10.030;2022-07-10T09:19:16;101189.81;;;21.79;40.76
46199;BME280;31928;52.104;10.030;2022-07-10T09:21:43;101186.03;;;21.85;40.01
46199;BME280;31928;52.104;10.030;2022-07-10T09:24:10;101200.84;;;21.99;39.08
46199;BME280;31928;52.104;10.030;2022-07-10T09:26:38;101184.47;;;22.09;38.05
46199;BME280;31928;52.104;10.030;2022-07-10T09:29:09;101190.28;;;22.23;39.04
46199;BME280;31928;52.104;10.030;2022-07-10T09:31:59;101180.22;;;22.33;39.45
46199;BME280;31928;52.104;10.030;2022-07-10T09:40:08;101173.13;;;22.42;36.70
46199;BME280;31928;52.104;10.030;2022-07-10T09:42:40;101166.56;;;22.48;37.45
46199;BME280;31928;52.104;10.030;2022-07-10T09:50:20;101166.03;;;22.51;38.28
46199;BME280;31928;52.104;10.030;2022-07-10T09:52:56;101168.22;;;22.49;38.38
46199;BME280;31928;52.104;10.030;2022-07-10T09:55:25;101185.72;;;22.43;37.58
46199;BME280;31928;52.104;10.030;2022-07-10T09:57:58;101178.06;;;22.45;37.72
46199;BME280;31928;52.104;10.030;2022-07-10T10:00:30;101181.88;;;22.49;38.24
46199;BME280;31928;52.104;10.030;2022-07-10T10:03:01;101176.69;;;22.47;38.04
46199;BME280;31928;52.104;10.030;2022-07-10T10:08:17;101177.50;;;22.48;38.75
46199;BME280;31928;52.104;10.030;2022-07-10T10:10:47;101174.78;;;22.43;38.47
46199;BME280;31928;52.104;10.030;2022-07-10T10:13:20;101173.16;;;22.47;38.49
46199;BME280;31928;52.104;10.030;2022-07-10T10:15:49;101175.88;;;22.42;37.95
46199;BME280;31928;52.104;10.030;2022-07-10T10:18:21;101173.69;;;22.49;38.39
46199;BME280;31928;52.104;10.030;2022-07-10T10:20:49;101173.69;;;22.49;38.04
46199;BME280;31928;52.104;10.030;2022-07-10T10:23:18;101170.97;;;22.54;37.83
46199;BME280;31928;52.104;10.030;2022-07-10T10:25:55;101157.59;;;22.67;38.17
46199;BME280;31928;52.104;10.030;2022-07-10T10:28:24;101179.19;;;22.69;38.00
46199;BME280;31928;52.104;10.030;2022-07-10T10:35:59;101173.72;;;22.84;36.42
46199;BME280;31928;52.104;10.030;2022-07-10T10:41:37;101167.44;;;23.03;38.18
46199;BME280;31928;52.104;10.030;2022-07-10T10:46:35;101167.44;;;22.88;36.33
46199;BME280;31928;52.104;10.030;2022-07-10T10:49:06;101164.16;;;22.96;37.92
46199;BME280;31928;52.104;10.030;2022-07-10T10:54:21;101164.44;;;23.14;36.92
46199;BME280;31928;52.104;10.030;2022-07-10T10:57:12;101162.75;;;23.43;37.97
46199;BME280;31928;52.104;10.030;2022-07-10T10:59:52;101157.22;;;23.53;37.71
46199;BME280;31928;52.104;10.030;2022-07-10T11:07:54;101155.81;;;23.80;36.03
46199;BME280;31928;52.104;10.030;2022-07-10T11:10:32;101157.97;;;23.83;35.92
46199;BME280;31928;52.104;10.030;2022-07-10T11:13:03;101158.28;;;23.77;34.84
46199;BME280;31928;52.104;10.030;2022-07-10T11:15:30;101152.00;;;23.76;34.69
46199;BME280;31928;52.104;10.030;2022-07-10T11:18:03;101156.88;;;23.84;34.96
46199;BME280;31928;52.104;10.030;2022-07-10T11:20:33;101162.34;;;23.89;35.27
46199;BME280;31928;52.104;10.030;2022-07-10T11:26:05;101153.72;;;24.16;35.95
46199;BME280;31928;52.104;10.030;2022-07-10T11:28:53;101149.81;;;24.26;35.85
46199;BME280;31928;52.104;10.030;2022-07-10T11:31:26;101153.09;;;24.28;34.56
46199;BME280;31928;52.104;10.030;2022-07-10T11:33:54;101139.91;;;24.40;34.11
46199;BME280;31928;52.104;10.030;2022-07-10T11:36:23;101131.28;;;24.52;33.05
46199;BME280;31928;52.104;10.030;2022-07-10T11:39:06;101134.19;;;24.70;33.79
46199;BME280;31928;52.104;10.030;2022-07-10T11:41:34;101131.63;;;24.79;33.31
46199;BME280;31928;52.104;10.030;2022-07-10T11:44:02;101128.50;;;24.90;33.59
46199;BME280;31928;52.104;10.030;2022-07-10T11:46:33;101143.78;;;25.06;34.03
46199;BME280;31928;52.104;10.030;2022-07-10T11:49:05;101133.25;;;25.13;33.48
46199;BME280;31928;52.104;10.030;2022-07-10T11:51:34;101135.41;;;25.16;32.43
46199;BME280;31928;52.104;10.030;2022-07-10T11:54:08;101134.28;;;25.22;33.57
46199;BME280;31928;52.104;10.030;2022-07-10T11:56:39;101133.72;;;25.20;32.94
46199;BME280;31928;52.104;10.030;2022-07-10T11:59:11;101128.72;;;25.27;33.12
46199;BME280;31928;52.104;10.030;2022-07-10T12:01:42;101140.19;;;25.34;33.48
46199;BME280;31928;52.104;10.030;2022-07-10T12:04:10;101128.03;;;25.40;32.16
46199;BME280;31928;52.104;10.030;2022-07-10T12:06:39;101141.47;;;25.41;31.80
46199;BME280;31928;52.104;10.030;2022-07-10T12:09:11;101135.69;;;25.42;31.35
46199;BME280;31928;52.104;10.030;2022-07-10T12:11:40;101132.72;;;25.39;32.16
46199;BME280;31928;52.104;10.030;2022-07-10T12:14:15;101138.13;;;25.44;33.25
46199;BME280;31928;52.104;10.030;2022-07-10T12:16:49;101123.59;;;25.43;33.21
46199;BME280;31928;52.104;10.030;2022-07-10T12:19:17;101140.88;;;25.44;32.10
46199;BME280;31928;52.104;10.030;2022-07-10T12:21:46;101137.28;;;25.48;32.77
46199;BME280;31928;52.104;10.030;2022-07-10T12:24:18;101139.47;;;25.46;32.07
46199;BME280;31928;52.104;10.030;2022-07-10T12:26:46;101148.56;;;25.47;31.99
46199;BME280;31928;52.104;10.030;2022-07-10T12:29:30;101142.66;;;25.58;33.57
46199;BME280;31928;52.104;10.030;2022-07-10T12:31:58;101148.31;;;25.43;32.61
46199;BME280;31928;52.104;10.030;2022-07-10T12:34:36;101141.72;;;25.44;33.35
46199;BME280;31928;52.104;10.030;2022-07-10T12:37:07;101153.06;;;25.38;33.29
46199;BME280;31928;52.104;10.030;2022-07-10T12:39:52;101149.41;;;25.42;33.95
46199;BME280;31928;52.104;10.030;2022-07-10T12:42:27;101152.00;;;25.34;33.49
46199;BME280;31928;52.104;10.030;2022-07-10T12:44:54;101160.63;;;25.23;33.10
46199;BME280;31928;52.104;10.030;2022-07-10T12:47:21;101154.34;;;25.17;33.28
46199;BME280;31928;52.104;10.030;2022-07-10T12:52:31;101155.78;;;25.15;34.00
46199;BME280;31928;52.104;10.030;2022-07-10T12:55:18;101157.97;;;25.13;34.47
46199;BME280;31928;52.104;10.030;2022-07-10T12:57:53;101174.06;;;24.91;33.80
46199;BME280;31928;52.104;10.030;2022-07-10T13:00:22;101173.06;;;24.77;33.63
46199;BME280;31928;52.104;10.030;2022-07-10T13:03:06;101173.66;;;24.74;34.35
46199;BME280;31928;52.104;10.030;2022-07-10T13:05:34;101164.47;;;24.55;34.26
46199;BME280;31928;52.104;10.030;2022-07-10T13:10:37;101172.25;;;24.33;34.33
46199;BME280;31928;52.104;10.030;2022-07-10T13:13:03;101167.66;;;24.24;34.52
46199;BME280;31928;52.104;10.030;2022-07-10T13:15:31;101179.72;;;24.18;35.26
46199;BME280;31928;52.104;10.030;2022-07-10T13:18:01;101172.91;;;24.11;35.01
46199;BME280;31928;52.104;10.030;2022-07-10T13:20:28;101169.97;;;24.02;35.43
46199;BME280;31928;52.104;10.030;2022-07-10T13:22:54;101180.66;;;23.94;35.62
46199;BME280;31928;52.104;10.030;2022-07-10T13:25:21;101181.53;;;23.89;36.08
46199;BME280;31928;52.104;10.030;2022-07-10T13:27:47;101184.00;;;23.86;36.16
46199;BME280;31928;52.104;10.030;2022-07-10T13:30:14;101176.88;;;23.80;35.99
46199;BME280;31928;52.104;10.030;2022-07-10T13:32:41;101178.00;;;23.79;36.43